FMST

Details ICAO FMST (TLE)
Name TOLIARA
Region Comoros, Mayotte, Réunion and Madagascar
Timezone Indian/Antananarivo (UTC+3.0)
Plans Departing 30
Arriving 44
Stats Elevation 29 ft / 9 m (AMSL)
Location -23.387333° 43.728634°
Runways 2
Magnetic Variation 20.492° W
Sunrise 2018-05-21 03:35:42 UTC / 2018-05-21 06:35:42 Local
Sunset 2018-05-21 14:30:29 UTC / 2018-05-21 17:30:29 Local
Advertisement - Login to hide

Runways

ID Width Length Bearing (true) Bearing (mag) Surface Threshold Offset Overrun Length
04 98 ft / 30 m 6,583 ft / 2,007 m 23.34° 43.83° Asphalt 0 ft / 0 m 100 ft / 30 m
11 42 ft / 13 m 2,624 ft / 800 m 89.07° 109.56° Asphalt 0 ft / 0 m 0 ft / 0 m
22 98 ft / 30 m 6,583 ft / 2,007 m 203.34° 223.83° Asphalt 0 ft / 0 m 100 ft / 30 m
29 42 ft / 13 m 2,624 ft / 800 m 269.07° 289.56° Asphalt 0 ft / 0 m 0 ft / 0 m

Map

Weather


0- 5 10 15 20 25 30 35+ Temperature / ° C

Clouds and Precipitation
Forecast for 2018-05-21 06:00 UTC. Updated 10 minutes ago

Ground ~20,000 ft ~40,000 ft Winds

METAR

Not found

TAF

TAF FMST 202300Z 2100/2124 18010KT 9999 SCT020

Frequencies

Tower 118.60 MHz AFIS
Warning: Do not use this data for real-world aviation or navigation. No guarantee of current accuracy is given.